Time,TemperatureF,DewpointF,PressureIn,WindDirection,WindDirectionDegrees,WindSpeedMPH,WindSpeedGustMPH,Humidity,HourlyPrecipIn,Conditions,Clouds,dailyrainin,SolarRadiationWatts/m^2,SoftwareType,DateUTC
2013-04-18 00:02:00,59.0,26.0,-100.00,NNW,341,0.0,0.0,28,0.00,,,0.00,0.000000,,2013-04-18 07:02:00,
2013-04-18 00:52:00,58.0,22.0,-100.00,SW,220,0.0,0.0,25,-99.99,,,0.00,1.000000,,2013-04-18 07:52:00,
2013-04-18 01:02:00,58.0,22.0,-100.00,SW,220,0.0,0.0,25,-99.99,,,0.00,1.000000,,2013-04-18 08:02:00,
2013-04-18 01:52:00,56.0,27.0,-100.00,SSW,204,0.0,0.0,32,0.00,,,0.00,1.000000,,2013-04-18 08:52:00,
2013-04-18 02:02:00,56.0,27.0,-100.00,SSW,204,0.0,0.0,32,0.00,,,0.00,1.000000,,2013-04-18 09:02:00,
2013-04-18 02:12:00,56.0,27.0,-100.00,SSW,204,0.0,0.0,32,0.00,,,0.00,1.000000,,2013-04-18 09:12:00,
2013-04-18 02:22:00,56.0,27.0,-100.00,SSW,204,0.0,0.0,32,0.00,,,0.00,1.000000,,2013-04-18 09:22:00,
2013-04-18 02:32:00,56.0,27.0,-100.00,SSW,204,0.0,0.0,32,0.00,,,0.00,1.000000,,2013-04-18 09:32:00,
2013-04-18 02:53:00,58.0,22.0,-100.00,South,181,0.0,0.0,25,0.00,,,0.00,0.000000,,2013-04-18 09:53:00,
2013-04-18 03:03:00,58.0,22.0,-100.00,South,181,0.0,0.0,25,0.00,,,0.00,0.000000,,2013-04-18 10:03:00,
2013-04-18 03:52:00,58.0,23.0,-100.00,North,8,4.0,19.0,26,0.00,,,0.00,0.000000,,2013-04-18 10:52:00,
2013-04-18 04:02:00,58.0,23.0,-100.00,North,8,4.0,19.0,26,0.00,,,0.00,0.000000,,2013-04-18 11:02:00,
2013-04-18 04:52:00,59.0,18.0,-100.00,NNW,347,0.0,0.0,20,0.00,,,0.00,1.000000,,2013-04-18 11:52:00,
2013-04-18 05:02:00,59.0,18.0,-100.00,NNW,347,0.0,0.0,20,0.00,,,0.00,1.000000,,2013-04-18 12:02:00,
2013-04-18 05:12:00,59.0,18.0,-100.00,NNW,347,0.0,0.0,20,0.00,,,0.00,1.000000,,2013-04-18 12:12:00,
2013-04-18 05:22:00,59.0,18.0,-100.00,NNW,347,0.0,0.0,20,0.00,,,0.00,1.000000,,2013-04-18 12:22:00,
2013-04-18 05:32:00,59.0,18.0,-100.00,NNW,347,0.0,0.0,20,0.00,,,0.00,1.000000,,2013-04-18 12:32:00,
2013-04-18 05:52:00,59.0,17.0,-100.00,North,3,0.0,0.0,19,0.00,,,0.00,0.000000,,2013-04-18 12:52:00,
2013-04-18 06:02:00,59.0,17.0,-100.00,North,3,0.0,0.0,19,0.00,,,0.00,0.000000,,2013-04-18 13:02:00,
2013-04-18 06:53:00,58.0,18.0,-100.00,North,354,0.0,15.0,21,0.00,,,0.00,1.000000,,2013-04-18 13:53:00,
2013-04-18 07:02:00,58.0,18.0,-100.00,North,354,0.0,15.0,21,0.00,,,0.00,1.000000,,2013-04-18 14:02:00,
2013-04-18 07:12:00,58.0,18.0,-100.00,North,354,0.0,15.0,21,0.00,,,0.00,1.000000,,2013-04-18 14:12:00,
2013-04-18 07:22:00,58.0,18.0,-100.00,North,354,0.0,15.0,21,0.00,,,0.00,1.000000,,2013-04-18 14:22:00,
2013-04-18 07:32:00,58.0,18.0,-100.00,North,354,0.0,15.0,21,0.00,,,0.00,1.000000,,2013-04-18 14:32:00,
2013-04-18 07:33:00,60.0,21.0,-100.00,WNW,293,0.0,0.0,22,0.00,,,0.00,50.000000,,2013-04-18 14:33:00,
2013-04-18 07:52:00,60.0,21.0,-100.00,WNW,293,0.0,0.0,22,0.00,,,0.00,50.000000,,2013-04-18 14:52:00,
2013-04-18 08:02:00,60.0,21.0,-100.00,WNW,293,0.0,0.0,22,0.00,,,0.00,50.000000,,2013-04-18 15:02:00,
2013-04-18 08:12:00,60.0,21.0,-100.00,WNW,293,0.0,0.0,22,0.00,,,0.00,50.000000,,2013-04-18 15:12:00,
2013-04-18 08:22:00,60.0,21.0,-100.00,WNW,293,0.0,0.0,22,0.00,,,0.00,50.000000,,2013-04-18 15:22:00,
2013-04-18 08:33:00,64.0,23.0,-100.00,SW,226,1.0,8.0,21,0.00,,,0.00,227.000000,,2013-04-18 15:33:00,
2013-04-18 08:53:00,64.0,23.0,-100.00,SW,226,1.0,8.0,21,0.00,,,0.00,227.000000,,2013-04-18 15:53:00,
2013-04-18 09:03:00,64.0,23.0,-100.00,SW,226,1.0,8.0,21,0.00,,,0.00,227.000000,,2013-04-18 16:03:00,
2013-04-18 09:13:00,64.0,23.0,-100.00,SW,226,1.0,8.0,21,0.00,,,0.00,227.000000,,2013-04-18 16:13:00,
2013-04-18 09:22:00,64.0,23.0,-100.00,SW,226,1.0,8.0,21,0.00,,,0.00,227.000000,,2013-04-18 16:22:00,
2013-04-18 09:53:00,65.0,27.0,-100.00,WNW,303,3.0,10.0,24,0.00,,,0.00,425.000000,,2013-04-18 16:53:00,
2013-04-18 10:02:00,65.0,27.0,-100.00,WNW,303,3.0,10.0,24,0.00,,,0.00,425.000000,,2013-04-18 17:02:00,
2013-04-18 10:12:00,65.0,27.0,-100.00,WNW,303,3.0,10.0,24,0.00,,,0.00,425.000000,,2013-04-18 17:12:00,
2013-04-18 10:22:00,65.0,27.0,-100.00,WNW,303,3.0,10.0,24,0.00,,,0.00,425.000000,,2013-04-18 17:22:00,
2013-04-18 10:32:00,65.0,27.0,-100.00,WNW,303,3.0,10.0,24,0.00,,,0.00,425.000000,,2013-04-18 17:32:00,
2013-04-18 10:52:00,67.0,26.0,-100.00,NE,38,4.0,12.0,21,0.00,,,0.00,611.000000,,2013-04-18 17:52:00,
2013-04-18 11:02:00,67.0,26.0,-100.00,NE,38,4.0,12.0,21,0.00,,,0.00,611.000000,,2013-04-18 18:02:00,
2013-04-18 11:12:00,67.0,26.0,-100.00,NE,38,4.0,12.0,21,0.00,,,0.00,611.000000,,2013-04-18 18:12:00,
2013-04-18 11:22:00,67.0,26.0,-100.00,NE,38,4.0,12.0,21,0.00,,,0.00,611.000000,,2013-04-18 18:22:00,
2013-04-18 11:32:00,67.0,26.0,-100.00,NE,38,4.0,12.0,21,0.00,,,0.00,611.000000,,2013-04-18 18:32:00,
2013-04-18 11:52:00,67.0,27.0,-100.00,SSE,153,4.0,12.0,22,0.00,,,0.00,764.000000,,2013-04-18 18:52:00,
2013-04-18 12:02:00,67.0,27.0,-100.00,SSE,153,4.0,12.0,22,0.00,,,0.00,764.000000,,2013-04-18 19:02:00,
2013-04-18 12:12:00,67.0,27.0,-100.00,SSE,153,4.0,12.0,22,0.00,,,0.00,764.000000,,2013-04-18 19:12:00,
2013-04-18 12:22:00,67.0,27.0,-100.00,SSE,153,4.0,12.0,22,0.00,,,0.00,764.000000,,2013-04-18 19:22:00,
2013-04-18 12:32:00,67.0,27.0,-100.00,SSE,153,4.0,12.0,22,0.00,,,0.00,764.000000,,2013-04-18 19:32:00,
2013-04-18 12:52:00,70.0,30.0,-100.00,SSE,167,4.0,10.0,23,0.00,,,0.00,869.000000,,2013-04-18 19:52:00,
2013-04-18 13:02:00,70.0,30.0,-100.00,SSE,167,4.0,10.0,23,0.00,,,0.00,869.000000,,2013-04-18 20:02:00,
2013-04-18 13:12:00,70.0,30.0,-100.00,SSE,167,4.0,10.0,23,0.00,,,0.00,869.000000,,2013-04-18 20:12:00,
2013-04-18 13:22:00,70.0,30.0,-100.00,SSE,167,4.0,10.0,23,0.00,,,0.00,869.000000,,2013-04-18 20:22:00,
2013-04-18 13:32:00,70.0,30.0,-100.00,SSE,167,4.0,10.0,23,0.00,,,0.00,869.000000,,2013-04-18 20:32:00,
2013-04-18 13:52:00,71.0,29.0,-100.00,North,10,1.0,15.0,21,0.00,,,0.00,915.000000,,2013-04-18 20:52:00,
2013-04-18 14:02:00,71.0,29.0,-100.00,North,10,1.0,15.0,21,0.00,,,0.00,915.000000,,2013-04-18 21:02:00,
2013-04-18 14:12:00,71.0,29.0,-100.00,North,10,1.0,15.0,21,0.00,,,0.00,915.000000,,2013-04-18 21:12:00,
2013-04-18 14:22:00,71.0,29.0,-100.00,North,10,1.0,15.0,21,0.00,,,0.00,915.000000,,2013-04-18 21:22:00,
2013-04-18 14:32:00,71.0,29.0,-100.00,North,10,1.0,15.0,21,0.00,,,0.00,915.000000,,2013-04-18 21:32:00,
2013-04-18 14:53:00,73.0,32.0,-100.00,South,191,1.0,13.0,22,0.00,,,0.00,904.000000,,2013-04-18 21:53:00,
2013-04-18 15:02:00,73.0,32.0,-100.00,South,191,1.0,13.0,22,0.00,,,0.00,904.000000,,2013-04-18 22:02:00,
2013-04-18 15:12:00,73.0,32.0,-100.00,South,191,1.0,13.0,22,0.00,,,0.00,904.000000,,2013-04-18 22:12:00,
2013-04-18 15:22:00,73.0,32.0,-100.00,South,191,1.0,13.0,22,0.00,,,0.00,904.000000,,2013-04-18 22:22:00,
2013-04-18 15:32:00,73.0,32.0,-100.00,South,191,1.0,13.0,22,0.00,,,0.00,904.000000,,2013-04-18 22:32:00,
2013-04-18 15:52:00,72.0,33.0,-100.00,West,270,11.0,17.0,24,0.00,,,0.00,833.000000,,2013-04-18 22:52:00,
2013-04-18 16:03:00,72.0,33.0,-100.00,West,270,11.0,17.0,24,0.00,,,0.00,833.000000,,2013-04-18 23:03:00,
2013-04-18 16:11:00,72.0,33.0,-100.00,West,270,11.0,17.0,24,0.00,,,0.00,833.000000,,2013-04-18 23:11:00,
2013-04-18 16:21:00,72.0,33.0,-100.00,West,270,11.0,17.0,24,0.00,,,0.00,833.000000,,2013-04-18 23:21:00,
2013-04-18 16:32:00,72.0,33.0,-100.00,West,270,11.0,17.0,24,0.00,,,0.00,833.000000,,2013-04-18 23:32:00,
2013-04-18 16:52:00,67.0,35.0,-100.00,West,277,13.0,22.0,30,0.00,,,-99.99,709.000000,,2013-04-18 23:52:00,
2013-04-18 17:01:00,67.0,35.0,-100.00,West,277,13.0,22.0,30,0.00,,,-99.99,709.000000,,2013-04-19 00:01:00,
2013-04-18 17:12:00,67.0,35.0,-100.00,West,277,13.0,22.0,30,0.00,,,-99.99,709.000000,,2013-04-19 00:12:00,
2013-04-18 17:21:00,67.0,35.0,-100.00,West,277,13.0,22.0,30,0.00,,,-99.99,709.000000,,2013-04-19 00:21:00,
2013-04-18 17:31:00,67.0,35.0,-100.00,West,277,13.0,22.0,30,0.00,,,-99.99,709.000000,,2013-04-19 00:31:00,
2013-04-18 17:52:00,66.0,33.0,-100.00,WSW,256,10.0,23.0,29,0.00,,,0.00,539.000000,,2013-04-19 00:52:00,
2013-04-18 18:01:00,66.0,33.0,-100.00,WSW,256,10.0,23.0,29,0.00,,,0.00,539.000000,,2013-04-19 01:01:00,
2013-04-18 18:11:00,66.0,33.0,-100.00,WSW,256,10.0,23.0,29,0.00,,,0.00,539.000000,,2013-04-19 01:11:00,
2013-04-18 18:21:00,66.0,33.0,-100.00,WSW,256,10.0,23.0,29,0.00,,,0.00,539.000000,,2013-04-19 01:21:00,
2013-04-18 18:31:00,66.0,33.0,-100.00,WSW,256,10.0,23.0,29,0.00,,,0.00,539.000000,,2013-04-19 01:31:00,
2013-04-18 18:52:00,64.0,28.0,-100.00,West,260,11.0,21.0,26,0.00,,,0.00,342.000000,,2013-04-19 01:52:00,
2013-04-18 19:01:00,64.0,28.0,-100.00,West,260,11.0,21.0,26,0.00,,,0.00,342.000000,,2013-04-19 02:01:00,
2013-04-18 19:11:00,64.0,28.0,-100.00,West,260,11.0,21.0,26,0.00,,,0.00,342.000000,,2013-04-19 02:11:00,
2013-04-18 19:21:00,64.0,28.0,-100.00,West,260,11.0,21.0,26,0.00,,,0.00,342.000000,,2013-04-19 02:21:00,
2013-04-18 19:31:00,64.0,28.0,-100.00,West,260,11.0,21.0,26,0.00,,,0.00,342.000000,,2013-04-19 02:31:00,
2013-04-18 19:52:00,62.0,32.0,-100.00,NW,307,5.0,21.0,32,0.00,,,0.00,138.000000,,2013-04-19 02:52:00,
2013-04-18 20:01:00,62.0,32.0,-100.00,NW,307,5.0,21.0,32,0.00,,,0.00,138.000000,,2013-04-19 03:01:00,
2013-04-18 20:11:00,62.0,32.0,-100.00,NW,307,5.0,21.0,32,0.00,,,0.00,138.000000,,2013-04-19 03:11:00,
2013-04-18 20:21:00,62.0,32.0,-100.00,NW,307,5.0,21.0,32,0.00,,,0.00,138.000000,,2013-04-19 03:21:00,
2013-04-18 20:32:00,62.0,32.0,-100.00,NW,307,5.0,21.0,32,0.00,,,0.00,138.000000,,2013-04-19 03:32:00,
2013-04-18 20:53:00,63.0,22.0,-100.00,NNW,339,3.0,11.0,21,0.00,,,0.00,6.000000,,2013-04-19 03:53:00,
2013-04-18 21:03:00,63.0,22.0,-100.00,NNW,339,3.0,11.0,21,0.00,,,0.00,6.000000,,2013-04-19 04:03:00,
2013-04-18 21:52:00,65.0,26.0,-100.00,NNW,344,5.0,8.0,23,0.00,,,0.00,0.000000,,2013-04-19 04:52:00,
2013-04-18 22:03:00,65.0,26.0,-100.00,NNW,344,5.0,8.0,23,0.00,,,0.00,0.000000,,2013-04-19 05:03:00,
2013-04-18 22:52:00,67.0,28.0,-100.00,NNW,339,0.0,8.0,23,-99.99,,,0.00,1.000000,,2013-04-19 05:52:00,
2013-04-18 23:01:00,67.0,28.0,-100.00,NNW,339,0.0,8.0,23,-99.99,,,0.00,1.000000,,2013-04-19 06:01:00,
2013-04-18 23:53:00,65.0,30.0,-100.00,NW,325,0.0,7.0,27,-99.99,,,0.00,1.000000,,2013-04-19 06:53:00,